Metcalfe, Mississippi
Current Conditions -  °F | °C
As of 8:53 PM on Tuesday 21 Oct 2014 (Local Time) from KGLH Reporting Station
Clear Clear  
Wind Chill: 18°   Ceiling: Unl
Heat Index: 18°   Visibility: 10mi
Dew Point: 13°   Wind: 6mph
Humidity: 70%   Direction: 30°NNE
Pressure: 30.05"   Gusts: NA
Location:  33.45°N, 91.01°W
Report Text: KGLH 220153Z AUTO 03005KT 10SM CLR 18/13 A3005 RMK AO2 SLP182 T01830128
Loading
Personal Weather Stations






























Interactive Weather Map
Tropical Storm Tracking
New forecast layout! Learn more

10-Day Weather Forecast

Advertisements
Track Severe Weather on mobile